KAUW/AUW METAR and TAF weather

Enter ICAO airport designator
Station Type Date Time Source
KAUW METAR 2021/09/23 17:54 UTC NOAA

KAUW 231754Z AUTO 33010G21KT 10SM CLR 19/05 A3000 RMK AO2 SLP165 T01940050 10200 20067 58023


Station Type Date Time Source
KAUW Decoded METAR 2021/09/23 17:54 UTC NOAA

WAUSAU DOWNTOWN AIRPORT, WI, United States (KAUW) 44-56N 089-37W 362M
Sep 23, 2021 - 01:54 PM EDT / 2021.09.23 1754 UTC
Wind: from the NNW (330 degrees) at 12 MPH (10 KT) gusting to 24 MPH (21 KT):0
Visibility: 10 mile(s):0
Sky conditions: clear
Temperature: 66.9 F (19.4 C)
Dew Point: 41.0 F (5.0 C)
Relative Humidity: 38%
Pressure (altimeter): 30 in. Hg (1015 hPa)
Pressure tendency: 0.07 inches (2.3 hPa) lower than three hours ago
ob: KAUW 231754Z AUTO 33010G21KT 10SM CLR 19/05 A3000 RMK AO2 SLP165 T01940050 10200 20067 58023
cycle: 18

Station Type Date Time Source
KAUW TAF 2021/09/23 18:30 UTC NOAA

TAF KAUW 231728Z 2318/2418 34009G16KT P6SM SKC
FM232100 34005KT P6SM FEW035
FM240000 30002KT P6SM SKC
FM240600 30002KT P6SM SKC
FM241000 23002KT P6SM SCT250
FM241400 20006KT P6SM SCT200

Example: see airport list